Time;durP1;ratioP1;P1;durP2;ratioP2;P2;SDS_P1;SDS_P2;PMS_P1;PMS_P2;Temp;Humidity;BMP_temperature;BMP_pressure;BME280_temperature;BME280_humidity;BME280_pressure;Samples;Min_cycle;Max_cycle;Signal;HPM_P1;HPM_P2
2021/04/14 04:15:37;;;;;;;6.07;4.53;;;;;;;-2.80;84.36;99993.72;5844498;23;20047;-73
2021/04/14 04:18:04;;;;;;;6.07;4.28;;;;;;;-2.82;84.05;100000.38;4955052;28;20393;-73
2021/04/14 04:20:29;;;;;;;6.05;4.22;;;;;;;-2.76;83.94;100000.69;4954943;28;20468;-74
2021/04/14 04:22:55;;;;;;;6.82;4.65;;;;;;;-2.76;83.81;100000.69;4907662;28;20045;-74
2021/04/14 04:25:20;;;;;;;11.48;4.93;;;;;;;-2.65;84.75;100000.50;4956732;28;20023;-73
2021/04/14 04:27:46;;;;;;;6.35;4.32;;;;;;;-2.52;84.61;100003.69;4974332;28;20045;-73
2021/04/14 04:30:11;;;;;;;7.72;4.75;;;;;;;-2.68;83.35;100004.53;4924209;28;20035;-69
2021/04/14 04:32:37;;;;;;;7.35;4.57;;;;;;;-2.72;83.50;100002.63;4973956;28;20472;-69
2021/04/14 04:35:07;;;;;;;8.45;4.43;;;;;;;-2.89;84.24;100002.59;4973935;28;20054;-69
2021/04/14 04:37:33;;;;;;;9.40;4.75;;;;;;;-2.89;84.31;100010.19;4974180;28;20431;-70
2021/04/14 04:39:58;;;;;;;6.30;4.20;;;;;;;-2.93;84.28;100007.41;4934125;28;20027;-70
2021/04/14 04:42:24;;;;;;;6.70;4.72;;;;;;;-2.62;84.51;99999.78;4953383;29;20484;-69
2021/04/14 04:44:49;;;;;;;10.50;5.40;;;;;;;-2.65;83.92;99999.63;4954658;28;20030;-70
2021/04/14 04:47:14;;;;;;;9.15;5.68;;;;;;;-2.53;84.05;100005.34;4954614;28;20031;-71
2021/04/14 04:49:40;;;;;;;7.30;5.43;;;;;;;-2.53;84.03;100005.34;4954455;28;20392;-72
2021/04/14 04:52:05;;;;;;;7.35;4.90;;;;;;;-2.71;83.35;100009.44;4954461;28;20023;-72
2021/04/14 04:54:32;;;;;;;10.45;4.57;;;;;;;-2.64;83.35;100016.59;4954475;28;20035;-73
2021/04/14 04:56:57;;;;;;;11.85;5.00;;;;;;;-2.71;83.46;100014.50;4954361;28;20480;-73
2021/04/14 04:59:23;;;;;;;7.97;4.47;;;;;;;-2.66;83.15;100019.06;4954315;28;20114;-73
2021/04/14 05:01:48;;;;;;;6.40;4.40;;;;;;;-2.61;83.39;100011.69;4954209;28;20118;-73
2021/04/14 05:04:13;;;;;;;7.05;4.95;;;;;;;-2.55;82.98;100017.09;4954223;28;20468;-73
2021/04/14 05:06:39;;;;;;;7.78;4.55;;;;;;;-2.58;82.39;100027.06;4954244;28;20031;-73
2021/04/14 05:09:05;;;;;;;8.55;5.45;;;;;;;-2.69;83.22;100033.22;4954275;28;20031;-72
2021/04/14 05:11:30;;;;;;;8.98;5.93;;;;;;;-2.72;83.60;100017.84;4954072;28;20405;-73
2021/04/14 05:13:57;;;;;;;10.00;4.97;;;;;;;-2.58;83.40;100027.06;4954109;28;20114;-73
2021/04/14 05:16:23;;;;;;;10.90;5.55;;;;;;;-2.53;82.97;100025.66;4953788;28;20023;-72
2021/04/14 05:18:48;;;;;;;7.60;4.65;;;;;;;-2.44;82.36;100028.69;4954105;28;20102;-72
2021/04/14 05:21:14;;;;;;;17.75;5.45;;;;;;;-2.41;82.32;100031.41;4954012;28;20067;-72
2021/04/14 05:23:39;;;;;;;13.57;6.43;;;;;;;-2.28;82.12;100032.91;4954268;28;20072;-72
2021/04/14 05:26:05;;;;;;;6.75;5.65;;;;;;;-2.10;82.07;100038.09;4954272;28;20138;-73
2021/04/14 05:28:30;;;;;;;12.07;5.35;;;;;;;-2.03;81.07;100030.03;4954108;28;20330;-72
2021/04/14 05:30:56;;;;;;;7.70;4.88;;;;;;;-2.05;80.82;100036.66;4953773;28;20393;-72
2021/04/14 05:33:23;;;;;;;10.48;5.32;;;;;;;-1.96;80.69;100036.28;4953799;28;20046;-73
2021/04/14 05:35:49;;;;;;;7.05;5.30;;;;;;;-2.01;80.58;100038.56;4953143;28;20031;-72
2021/04/14 05:38:14;;;;;;;10.80;5.55;;;;;;;-1.81;80.68;100032.84;4953913;28;20023;-73
2021/04/14 05:40:42;;;;;;;9.00;5.20;;;;;;;-1.62;80.15;100044.81;4953807;28;20465;-72
2021/04/14 05:43:12;;;;;;;11.50;5.10;;;;;;;-1.59;79.82;100039.91;4953726;28;20054;-72
2021/04/14 05:45:37;;;;;;;11.15;5.07;;;;;;;-1.39;79.02;100038.38;4953774;28;20349;-73
2021/04/14 05:48:02;;;;;;;6.18;4.75;;;;;;;-1.37;78.58;100041.84;4953773;28;20109;-72
2021/04/14 05:50:28;;;;;;;9.70;4.97;;;;;;;-1.18;78.08;100042.75;4953680;28;20045;-73
2021/04/14 05:52:53;;;;;;;8.13;4.28;;;;;;;-1.37;78.07;100040.97;4953662;28;20392;-73
2021/04/14 05:55:20;;;;;;;7.47;4.95;;;;;;;-1.31;78.57;100041.28;4953702;28;20544;-72
2021/04/14 05:57:45;;;;;;;6.32;4.40;;;;;;;-0.81;78.06;100046.28;4953704;28;20031;-73
2021/04/14 06:00:13;;;;;;;10.38;4.85;;;;;;;-1.18;77.14;100047.84;4953598;28;20539;-73
2021/04/14 06:02:42;;;;;;;6.72;4.95;;;;;;;-1.19;78.22;100046.97;4953486;28;20031;-73
2021/04/14 06:05:12;;;;;;;6.53;5.07;;;;;;;-0.77;77.68;100052.41;4945229;28;20501;-73
2021/04/14 06:07:38;;;;;;;6.68;4.80;;;;;;;-0.56;76.20;100049.97;4952890;28;20483;-73
2021/04/14 06:10:05;;;;;;;10.65;4.88;;;;;;;-0.52;75.88;100044.25;4958187;28;20051;-73
2021/04/14 06:12:31;;;;;;;9.63;5.05;;;;;;;-0.50;75.53;100042.63;4952955;28;20106;-72
2021/04/14 06:14:56;;;;;;;7.18;5.00;;;;;;;-0.45;75.38;100040.28;4952897;28;20023;-73
2021/04/14 06:17:21;;;;;;;6.55;4.80;;;;;;;-0.11;75.03;100043.56;4968014;28;20037;-73
2021/04/14 06:19:47;;;;;;;6.85;4.80;;;;;;;-0.03;73.89;100036.28;4957924;28;20105;-73
2021/04/14 06:22:13;;;;;;;8.52;4.85;;;;;;;0.49;73.13;100034.31;4964517;28;20042;-73
2021/04/14 06:24:38;;;;;;;8.07;5.57;;;;;;;0.30;72.26;100036.88;4964601;28;20154;-73
2021/04/14 06:27:06;;;;;;;14.40;5.03;;;;;;;0.62;71.81;100035.69;4957847;28;20098;-73
2021/04/14 06:29:31;;;;;;;8.77;4.82;;;;;;;0.87;70.41;100031.59;4969142;28;20050;-73
2021/04/14 06:31:58;;;;;;;8.88;4.78;;;;;;;1.00;70.20;100034.72;4958886;28;20377;-73
2021/04/14 06:34:25;;;;;;;7.68;4.68;;;;;;;0.97;70.45;100033.72;4962009;28;20374;-73
2021/04/14 06:36:57;;;;;;;8.35;5.10;;;;;;;0.98;70.36;100028.69;4966011;28;20026;-73
2021/04/14 06:39:27;;;;;;;10.10;4.85;;;;;;;1.75;68.78;100032.53;4956535;28;20454;-73
2021/04/14 06:42:15;;;;;;;15.93;7.72;;;;;;;1.27;69.41;100029.84;4965978;28;20539;-73
2021/04/14 06:44:59;;;;;;;9.95;5.45;;;;;;;1.29;69.45;100033.31;4957998;28;20041;-73
2021/04/14 06:47:39;;;;;;;6.95;5.32;;;;;;;1.16;69.63;100036.22;4970892;28;20527;-73
2021/04/14 06:50:16;;;;;;;11.18;5.18;;;;;;;1.92;68.07;100027.16;4963131;28;20384;-73
2021/04/14 06:53:29;;;;;;;8.55;4.88;;;;;;;3.18;63.94;100016.97;4964012;28;20049;-73
2021/04/14 06:55:57;;;;;;;10.50;4.95;;;;;;;4.64;59.05;100010.94;4946148;28;20054;-73
2021/04/14 06:58:33;;;;;;;5.65;4.80;;;;;;;5.93;55.45;100004.50;4966387;28;20046;-73
2021/04/14 07:01:06;;;;;;;10.18;4.38;;;;;;;8.07;49.26;99990.72;4970357;28;20037;-73
2021/04/14 07:03:40;;;;;;;7.93;3.75;;;;;;;9.50;43.85;99986.84;4959455;28;20435;-73
2021/04/14 07:06:09;;;;;;;6.53;4.13;;;;;;;10.53;41.86;99989.84;4968687;28;20023;-73
2021/04/14 07:08:39;;;;;;;4.90;4.40;;;;;;;10.09;41.29;99992.31;4966894;28;20105;-74
2021/04/14 07:11:06;;;;;;;6.45;3.95;;;;;;;8.86;44.14;100004.50;4960575;28;20054;-73
2021/04/14 07:13:36;;;;;;;14.35;4.40;;;;;;;7.51;49.11;100003.78;4971948;28;20507;-73
2021/04/14 07:16:16;;;;;;;6.22;4.00;;;;;;;6.65;48.83;100012.72;4960908;28;20034;-73
2021/04/14 07:18:57;;;;;;;4.80;3.90;;;;;;;10.01;42.86;99995.75;4963670;28;20131;-73
2021/04/14 07:21:48;;;;;;;7.05;3.95;;;;;;;12.06;37.69;99987.94;4971900;28;20050;-73
2021/04/14 07:24:29;;;;;;;5.10;4.05;;;;;;;13.37;34.38;99980.09;4963755;28;20047;-74
2021/04/14 07:27:20;;;;;;;4.85;3.70;;;;;;;12.52;34.73;99990.31;4961732;28;20027;-74
2021/04/14 07:29:51;;;;;;;5.35;3.65;;;;;;;13.39;33.49;99975.72;4944963;28;20029;-73
2021/04/14 07:32:29;;;;;;;8.65;3.80;;;;;;;11.98;37.22;99981.91;4965253;28;20396;-73
2021/04/14 07:35:13;;;;;;;7.43;4.32;;;;;;;14.12;32.83;99980.13;4969223;28;20033;-74
2021/04/14 07:38:00;;;;;;;4.95;3.67;;;;;;;13.84;34.09;99974.38;4943250;28;20261;-73
2021/04/14 07:40:38;;;;;;;6.13;3.65;;;;;;;14.89;32.32;99979.00;4965299;28;20171;-74
2021/04/14 07:43:13;;;;;;;5.80;3.20;;;;;;;14.06;33.72;99985.38;4970174;28;20122;-73
2021/04/14 07:45:40;;;;;;;24.80;4.30;;;;;;;14.97;31.82;99982.34;4942778;28;20022;-74
2021/04/14 07:48:09;;;;;;;8.77;3.60;;;;;;;15.13;31.92;99978.63;4968848;28;20118;-74
2021/04/14 07:50:45;;;;;;;6.77;3.43;;;;;;;13.74;34.57;99979.72;4955118;28;20024;-73
2021/04/14 07:53:33;;;;;;;4.88;3.33;;;;;;;15.82;30.16;99963.44;4958756;28;20115;-73
2021/04/14 07:56:20;;;;;;;8.30;3.28;;;;;;;16.33;28.95;99971.06;4948095;28;20067;-73
2021/04/14 07:59:04;;;;;;;7.53;3.42;;;;;;;15.72;30.71;99967.13;4961749;28;20035;-74
2021/04/14 08:01:30;;;;;;;4.70;2.53;;;;;;;17.24;27.78;99959.28;4971091;28;20476;-73
2021/04/14 08:04:25;;;;;;;7.45;2.78;;;;;;;16.57;28.17;99965.25;4960808;28;20080;-74
2021/04/14 08:06:51;;;;;;;4.97;3.03;;;;;;;15.47;30.29;99977.97;4961494;28;20034;-73
2021/04/14 08:09:21;;;;;;;9.80;3.75;;;;;;;15.01;31.73;99973.59;4970988;28;20031;-73
2021/04/14 08:11:49;;;;;;;5.10;3.28;;;;;;;16.32;29.98;99969.34;4959443;28;20055;-73
2021/04/14 08:14:37;;;;;;;5.60;3.28;;;;;;;16.73;29.30;99967.53;4965902;28;20535;-73
2021/04/14 08:17:14;;;;;;;5.55;3.17;;;;;;;15.33;30.82;99961.75;4969322;28;20027;-73
2021/04/14 08:19:40;;;;;;;6.03;3.38;;;;;;;14.41;32.64;99971.03;4942734;28;20022;-73
2021/04/14 08:22:20;;;;;;;7.57;3.67;;;;;;;15.14;31.18;99959.44;4967101;28;20063;-73
2021/04/14 08:24:59;;;;;;;4.82;3.13;;;;;;;16.02;31.07;99956.03;4967298;28;20482;-73
2021/04/14 08:27:35;;;;;;;7.55;3.42;;;;;;;16.97;28.81;99956.50;4958059;28;20055;-74
2021/04/14 08:30:16;;;;;;;7.63;3.35;;;;;;;16.73;29.04;99955.34;4967577;28;20043;-74
2021/04/14 08:32:59;;;;;;;8.38;3.40;;;;;;;16.90;28.63;99958.38;4966332;28;20444;-74
2021/04/14 08:35:40;;;;;;;8.07;3.33;;;;;;;17.74;27.97;99952.69;4957917;28;20027;-73
2021/04/14 08:38:11;;;;;;;6.57;3.92;;;;;;;17.70;27.48;99944.03;4966987;28;20046;-74
2021/04/14 08:40:50;;;;;;;8.43;3.97;;;;;;;17.66;27.97;99950.28;4965646;28;20097;-74
2021/04/14 08:43:44;;;;;;;10.27;3.72;;;;;;;18.23;26.74;99946.03;4957499;28;20027;-74
2021/04/14 08:46:14;;;;;;;6.82;3.45;;;;;;;19.13;26.64;99937.84;4966282;28;20015;-74
2021/04/14 08:48:43;;;;;;;9.77;3.47;;;;;;;18.70;26.31;99938.44;4965873;28;20042;-74
2021/04/14 08:51:10;;;;;;;;;;;;;;;18.53;26.75;99936.34;4957156;28;20079;-73
2021/04/14 08:53:38;;;;;;;4.97;2.88;;;;;;;19.06;26.24;99928.50;4970163;28;20331;-73
2021/04/14 08:56:04;;;;;;;6.28;3.13;;;;;;;18.06;27.22;99933.41;4961004;28;20022;-73
2021/04/14 08:58:30;;;;;;;6.00;3.28;;;;;;;16.83;29.06;99924.56;4963245;28;20031;-73
2021/04/14 09:00:58;;;;;;;5.57;3.45;;;;;;;14.57;33.04;99940.41;4967849;28;20019;-73
2021/04/14 09:03:27;;;;;;;6.90;3.67;;;;;;;11.66;37.66;99943.09;4957187;28;20027;-74
2021/04/14 09:05:53;;;;;;;6.28;3.70;;;;;;;10.92;38.45;99942.34;4966930;28;20023;-73
2021/04/14 09:08:23;;;;;;;7.60;3.50;;;;;;;9.64;42.17;99936.91;4962681;28;20026;-73
2021/04/14 09:11:06;;;;;;;9.80;3.70;;;;;;;7.94;46.31;99949.31;4960009;28;20020;-73
2021/04/14 09:13:44;;;;;;;5.10;3.97;;;;;;;8.74;46.54;99944.94;4969921;28;20158;-73
2021/04/14 09:16:10;;;;;;;19.15;8.45;;;;;;;8.28;46.75;99946.22;4959859;28;20506;-72
2021/04/14 09:18:39;;;;;;;8.10;3.63;;;;;;;7.14;50.04;99947.38;4961325;28;20098;-72
2021/04/14 09:21:40;;;;;;;11.03;4.13;;;;;;;8.47;46.77;99928.38;4967482;28;20019;-73
2021/04/14 09:24:20;;;;;;;6.60;4.00;;;;;;;8.31;46.79;99929.03;4948398;28;20026;-73
2021/04/14 09:26:55;;;;;;;6.88;3.80;;;;;;;7.97;46.67;99927.81;4960835;28;20027;-74
2021/04/14 09:29:22;;;;;;;6.43;3.60;;;;;;;7.65;47.83;99924.88;4969767;28;20027;-72
2021/04/14 09:31:49;;;;;;;4.72;3.47;;;;;;;7.93;48.61;99920.91;4948673;28;20488;-72
2021/04/14 09:34:17;;;;;;;6.18;3.90;;;;;;;7.81;47.66;99929.38;4941737;28;20038;-72
2021/04/14 09:36:50;;;;;;;9.90;4.20;;;;;;;7.51;49.04;99931.56;4943248;28;20027;-72
2021/04/14 09:39:30;;;;;;;7.45;3.50;;;;;;;7.59;49.20;99924.78;4939282;28;20035;-72
2021/04/14 09:41:55;;;;;;;10.02;3.63;;;;;;;7.79;47.10;99918.19;4945112;28;20029;-73
2021/04/14 09:44:40;;;;;;;9.07;6.07;;;;;;;7.79;48.03;99922.47;4945389;28;20027;-72
2021/04/14 09:47:10;;;;;;;132.50;64.60;;;;;;;7.95;46.68;99909.75;4945019;28;20551;-73
2021/04/14 09:49:41;;;;;;;51.40;22.77;;;;;;;7.78;46.81;99908.69;4939711;28;20058;-72
2021/04/14 09:52:33;;;;;;;9.93;4.82;;;;;;;7.73;48.72;99912.91;4945154;28;20039;-72
2021/04/14 09:55:07;;;;;;;10.25;6.55;;;;;;;7.95;46.90;99911.47;4943635;28;20037;-72
2021/04/14 09:57:40;;;;;;;9.13;3.60;;;;;;;8.57;44.15;99912.97;4940136;28;20031;-71
2021/04/14 10:00:16;;;;;;;10.75;4.88;;;;;;;8.43;43.56;99912.84;4944831;28;20023;-73
2021/04/14 10:02:44;;;;;;;22.63;9.20;;;;;;;8.24;44.25;99915.19;4945045;28;20023;-72
2021/04/14 10:05:10;;;;;;;3.95;3.25;;;;;;;8.53;44.46;99908.63;4943438;28;20152;-73
2021/04/14 10:07:40;;;;;;;6.72;3.05;;;;;;;8.32;44.21;99925.63;4944291;28;20381;-73
2021/04/14 10:10:10;;;;;;;5.05;1.95;;;;;;;6.36;48.39;99933.25;4944814;28;20488;-71
2021/04/14 10:12:36;;;;;;;6.30;2.10;;;;;;;5.77;52.06;99924.41;4944961;28;20449;-72
2021/04/14 10:15:05;;;;;;;4.85;2.30;;;;;;;5.81;53.96;99926.22;4940009;28;20032;-72
2021/04/14 10:17:33;;;;;;;3.88;2.28;;;;;;;6.48;53.46;99921.44;4943424;28;20043;-72
2021/04/14 10:20:18;;;;;;;3.58;2.08;;;;;;;5.43;56.89;99928.00;4940832;28;20042;-73
2021/04/14 10:22:49;;;;;;;5.90;2.38;;;;;;;4.89;60.32;99930.25;4944106;28;20035;-75
2021/04/14 10:25:20;;;;;;;3.33;2.10;;;;;;;4.99;60.47;99920.19;4946362;28;20117;-77
2021/04/14 10:27:47;;;;;;;4.68;2.60;;;;;;;5.23;59.99;99920.72;4946080;28;20046;-75
2021/04/14 10:30:22;;;;;;;4.32;2.42;;;;;;;5.11;60.22;99918.72;4967099;23;20491;-71
2021/04/14 10:32:49;;;;;;;4.35;2.28;;;;;;;4.88;60.54;99925.94;4963614;28;20458;-68
2021/04/14 10:35:19;;;;;;;5.53;2.30;;;;;;;4.82;60.97;99928.34;4964299;28;20062;-69
2021/04/14 10:37:50;;;;;;;5.80;3.38;;;;;;;5.11;60.57;99910.16;4964991;28;21031;-66
2021/04/14 10:40:21;;;;;;;3.88;2.55;;;;;;;4.86;60.82;99917.31;4962384;28;20042;-66
2021/04/14 10:42:48;;;;;;;8.43;3.50;;;;;;;5.04;57.70;99913.44;4963556;28;20114;-66
2021/04/14 10:45:17;;;;;;;7.65;3.90;;;;;;;4.95;58.31;99913.22;4967413;28;20034;-69
2021/04/14 10:47:45;;;;;;;8.43;3.28;;;;;;;5.10;57.63;99904.16;4961485;28;20085;-68
2021/04/14 10:50:23;;;;;;;3.13;2.58;;;;;;;5.01;55.58;99905.66;4963593;28;20030;-69
2021/04/14 10:53:04;;;;;;;5.97;2.70;;;;;;;5.66;53.62;99906.19;4963360;28;20037;-69
2021/04/14 10:55:36;;;;;;;8.93;3.22;;;;;;;6.33;52.17;99897.16;4966119;28;20073;-69
2021/04/14 10:58:04;;;;;;;6.38;2.45;;;;;;;7.31;49.70;99896.09;4963311;28;20540;-70
2021/04/14 11:00:34;;;;;;;4.30;2.15;;;;;;;7.86;48.96;99889.00;4967077;28;20085;-70
2021/04/14 11:03:04;;;;;;;4.70;2.40;;;;;;;8.09;46.64;99884.09;4962763;28;20031;-70
2021/04/14 11:05:30;;;;;;;3.65;1.83;;;;;;;8.04;46.60;99877.16;4967098;28;20035;-70
2021/04/14 11:07:56;;;;;;;5.85;2.30;;;;;;;8.20;46.41;99873.84;4967167;28;20393;-71
2021/04/14 11:10:29;;;;;;;2.72;2.40;;;;;;;8.70;43.55;99865.66;4964760;28;20036;-70
2021/04/14 11:12:56;;;;;;;2.42;1.88;;;;;;;9.06;43.63;99872.81;4961546;28;20121;-71
2021/04/14 11:15:25;;;;;;;4.70;2.25;;;;;;;9.52;41.54;99860.97;4966658;28;20033;-70
2021/04/14 11:17:58;;;;;;;4.20;2.20;;;;;;;9.42;42.30;99859.19;4967041;28;20832;-71
2021/04/14 11:20:37;;;;;;;5.05;1.90;;;;;;;9.34;42.37;99855.72;4965006;28;20034;-71
2021/04/14 11:23:02;;;;;;;5.70;2.17;;;;;;;8.83;41.54;99864.91;4976986;28;20113;-71
2021/04/14 11:25:33;;;;;;;5.78;2.30;;;;;;;7.89;43.30;99872.69;4965421;28;20356;-70
2021/04/14 11:28:04;;;;;;;4.45;2.05;;;;;;;7.71;41.99;99873.34;4962755;28;20034;-70
2021/04/14 11:30:32;;;;;;;1.70;1.45;;;;;;;7.48;44.29;99866.22;4963582;28;20035;-70
2021/04/14 11:33:02;;;;;;;2.60;1.75;;;;;;;6.10;46.78;99875.34;4961023;28;20046;-71
2021/04/14 11:35:41;;;;;;;6.15;2.05;;;;;;;7.32;45.50;99864.31;4964822;28;20035;-71
2021/04/14 11:38:25;;;;;;;2.60;1.75;;;;;;;7.53;43.40;99858.53;4965986;28;20041;-66
2021/04/14 11:40:51;;;;;;;4.40;1.90;;;;;;;7.85;40.80;99856.31;4965696;28;20121;-67
2021/04/14 11:43:33;;;;;;;5.70;1.90;;;;;;;8.08;41.10;99847.94;4960654;28;20684;-67
2021/04/14 11:46:08;;;;;;;2.88;1.75;;;;;;;7.96;38.35;99849.53;4966163;28;20034;-74
2021/04/14 11:48:39;;;;;;;3.38;1.83;;;;;;;8.09;38.98;99839.34;4963779;28;20740;-74
2021/04/14 11:51:26;;;;;;;3.50;1.80;;;;;;;8.10;39.75;99846.22;4962973;28;20412;-74
2021/04/14 11:53:59;;;;;;;1.80;1.60;;;;;;;7.74;40.93;99847.59;4966116;28;20122;-74
2021/04/14 11:56:45;;;;;;;7.80;2.22;;;;;;;7.56;42.14;99849.97;4966067;28;20772;-74
2021/04/14 11:59:24;;;;;;;7.82;2.50;;;;;;;8.89;39.41;99831.34;4966121;28;20476;-74
2021/04/14 12:02:14;;;;;;;2.58;1.73;;;;;;;9.24;39.86;99833.28;4964174;28;20081;-74
2021/04/14 12:04:41;;;;;;;3.50;1.83;;;;;;;8.91;39.57;99834.81;4963130;28;20045;-74
2021/04/14 12:07:06;;;;;;;3.00;1.95;;;;;;;8.89;40.70;99830.47;4965826;28;20030;-74
2021/04/14 12:09:32;;;;;;;5.38;2.00;;;;;;;9.59;39.02;99832.53;4966216;28;20045;-74
2021/04/14 12:11:58;;;;;;;4.60;1.88;;;;;;;9.17;39.71;99832.34;4962074;28;20037;-74
2021/04/14 12:14:23;;;;;;;5.88;2.22;;;;;;;9.22;40.91;99834.97;4962922;28;20392;-74
2021/04/14 12:16:48;;;;;;;4.00;1.85;;;;;;;8.88;39.34;99834.78;4948416;28;20053;-74
2021/04/14 12:19:13;;;;;;;4.15;1.80;;;;;;;9.03;39.92;99823.66;4965776;28;20027;-74
2021/04/14 12:21:39;;;;;;;3.67;1.83;;;;;;;9.51;39.39;99822.16;4961552;28;20876;-75
2021/04/14 12:24:04;;;;;;;3.92;2.10;;;;;;;9.63;39.18;99821.34;4960073;28;20027;-74
2021/04/14 12:26:29;;;;;;;5.47;1.83;;;;;;;9.59;40.00;99820.44;4965522;28;20368;-75
2021/04/14 12:28:55;;;;;;;2.33;1.80;;;;;;;9.34;38.94;99814.34;4961620;28;20523;-74
2021/04/14 12:31:20;;;;;;;3.17;1.80;;;;;;;9.72;39.39;99811.00;4960301;28;20417;-74
2021/04/14 12:33:45;;;;;;;5.13;1.70;;;;;;;10.53;37.93;99804.13;4962983;28;20109;-71
2021/04/14 12:36:11;;;;;;;3.38;1.77;;;;;;;9.97;38.36;99812.75;4961901;28;20254;-71
2021/04/14 12:38:36;;;;;;;4.05;1.80;;;;;;;9.47;39.97;99810.06;4962098;28;20035;-71
2021/04/14 12:41:02;;;;;;;3.67;1.95;;;;;;;9.24;41.58;99812.59;4959832;28;20023;-71
2021/04/14 12:43:27;;;;;;;3.95;2.30;;;;;;;10.09;40.47;99806.72;4964464;28;20031;-67
2021/04/14 12:45:53;;;;;;;3.20;1.83;;;;;;;9.56;41.21;99806.63;4963693;28;20031;-67
2021/04/14 12:48:26;;;;;;;2.35;1.70;;;;;;;9.28;41.94;99806.53;4961716;28;20045;-67
2021/04/14 12:51:13;;;;;;;2.92;1.75;;;;;;;9.05;40.33;99805.59;4961779;28;20398;-67
2021/04/14 12:53:43;;;;;;;4.28;1.73;;;;;;;8.88;40.67;99813.25;4963959;28;20089;-67
2021/04/14 12:56:20;;;;;;;4.72;2.17;;;;;;;8.57;45.77;99822.56;4959317;28;20082;-66
2021/04/14 12:58:46;;;;;;;3.75;2.05;;;;;;;6.90;50.85;99834.53;4962646;28;20030;-66
2021/04/14 13:01:11;;;;;;;5.97;2.22;;;;;;;6.03;59.53;99840.03;4961013;28;20026;-66
2021/04/14 13:04:09;;;;;;;3.75;2.42;;;;;;;5.58;63.16;99846.03;4964925;28;20129;-66
2021/04/14 13:06:45;;;;;;;3.70;2.80;;;;;;;5.37;66.47;99851.63;4953566;28;20051;-66
2021/04/14 13:09:13;;;;;;;10.43;3.35;;;;;;;4.92;69.22;99856.66;4963599;28;20081;-66
2021/04/14 13:11:43;;;;;;;6.97;3.55;;;;;;;4.98;69.09;99862.81;4963102;28;20035;-66
2021/04/14 13:14:10;;;;;;;5.38;3.45;;;;;;;4.36;70.02;99868.22;4964601;28;20030;-66
2021/04/14 13:17:06;;;;;;;5.65;3.22;;;;;;;3.69;71.68;99884.44;4961547;28;20035;-66
2021/04/14 13:19:33;;;;;;;4.63;3.20;;;;;;;4.30;73.34;99868.09;4964071;28;20034;-66
2021/04/14 13:22:05;;;;;;;7.25;3.33;;;;;;;4.96;71.64;99872.16;4964746;28;20023;-66
2021/04/14 13:24:46;;;;;;;6.47;3.20;;;;;;;5.01;69.61;99862.88;4964496;28;20145;-66
2021/04/14 13:27:16;;;;;;;5.65;3.35;;;;;;;4.49;73.30;99863.38;4959685;28;20110;-66
2021/04/14 13:29:47;;;;;;;5.32;3.63;;;;;;;4.39;73.96;99865.72;4963460;28;20488;-67
2021/04/14 13:32:23;;;;;;;4.03;3.10;;;;;;;4.49;74.10;99865.94;4964454;28;20038;-66
2021/04/14 13:35:03;;;;;;;5.85;3.50;;;;;;;4.44;74.31;99858.13;4962452;28;20035;-66
2021/04/14 13:37:41;;;;;;;5.95;3.85;;;;;;;4.41;74.87;99857.22;4959360;28;20035;-66
2021/04/14 13:40:15;;;;;;;6.72;3.58;;;;;;;4.50;73.04;99853.16;4963601;28;20027;-66
2021/04/14 13:42:49;;;;;;;11.93;3.45;;;;;;;5.13;73.21;99841.72;4963401;28;20038;-66
2021/04/14 13:45:50;;;;;;;3.80;3.33;;;;;;;4.94;70.14;99844.72;4964638;28;20101;-65
2021/04/14 13:48:25;;;;;;;3.72;3.10;;;;;;;5.14;71.50;99835.75;4964453;28;20058;-66
2021/04/14 13:51:00;;;;;;;3.55;3.25;;;;;;;5.15;70.66;99840.03;4963433;28;20090;-67
2021/04/14 13:53:32;;;;;;;3.90;3.50;;;;;;;4.73;70.96;99834.84;4964237;28;20114;-67
2021/04/14 13:56:20;;;;;;;5.25;4.00;;;;;;;5.06;73.78;99839.84;4963793;28;20070;-67
2021/04/14 13:58:50;;;;;;;5.28;4.05;;;;;;;5.00;73.70;99837.16;4957300;28;20042;-67
2021/04/14 14:01:22;;;;;;;5.68;4.03;;;;;;;4.79;71.83;99830.72;4967332;28;20442;-67
2021/04/14 14:03:53;;;;;;;8.02;4.05;;;;;;;5.02;71.69;99838.03;4963496;28;20097;-67
2021/04/14 14:06:34;;;;;;;4.20;3.33;;;;;;;4.76;70.00;99825.50;4962115;28;20046;-67
2021/04/14 14:09:04;;;;;;;3.97;3.65;;;;;;;4.43;73.17;99824.75;4968049;28;20031;-67
2021/04/14 14:11:33;;;;;;;6.93;3.60;;;;;;;4.38;72.72;99833.19;4966000;28;20026;-67
2021/04/14 14:14:01;;;;;;;12.68;3.80;;;;;;;4.36;72.98;99836.56;4968221;28;20529;-67
2021/04/14 14:16:42;;;;;;;6.55;3.72;;;;;;;4.49;73.11;99830.00;4962069;28;21217;-67
2021/04/14 14:19:18;;;;;;;12.10;4.45;;;;;;;4.17;76.23;99827.56;4966603;28;20027;-67
2021/04/14 14:21:45;;;;;;;7.95;5.30;;;;;;;4.49;74.46;99830.88;4963681;28;20027;-67
2021/04/14 14:24:11;;;;;;;4.88;4.18;;;;;;;4.79;73.76;99824.72;4967655;28;20038;-67
2021/04/14 14:26:38;;;;;;;6.32;3.63;;;;;;;4.66;72.04;99828.72;4961997;28;20026;-67
2021/04/14 14:29:04;;;;;;;5.30;4.38;;;;;;;4.69;73.29;99828.78;4967836;28;20101;-66
2021/04/14 14:31:32;;;;;;;7.20;3.80;;;;;;;4.92;72.40;99821.56;4966674;28;20502;-66
2021/04/14 14:33:59;;;;;;;7.85;3.63;;;;;;;4.62;68.82;99824.34;4967569;28;20117;-67
2021/04/14 14:36:38;;;;;;;6.95;3.53;;;;;;;4.96;70.96;99819.94;4961715;28;20030;-67
2021/04/14 14:39:18;;;;;;;5.75;3.65;;;;;;;4.86;69.29;99832.59;4967962;28;20022;-69
2021/04/14 14:42:03;;;;;;;9.57;3.80;;;;;;;5.25;67.72;99821.41;4964277;28;20086;-67
2021/04/14 14:44:37;;;;;;;10.75;4.65;;;;;;;4.72;68.30;99820.28;4963486;28;20038;-67
2021/04/14 14:47:04;;;;;;;4.95;3.30;;;;;;;4.80;69.42;99819.63;4961436;28;20031;-67
2021/04/14 14:49:35;;;;;;;7.60;3.63;;;;;;;5.34;68.21;99819.03;4966968;28;20030;-67
2021/04/14 14:52:01;;;;;;;7.63;3.20;;;;;;;5.40;64.19;99816.56;4967262;28;20030;-67
2021/04/14 14:54:30;;;;;;;6.43;3.20;;;;;;;5.76;64.13;99814.69;4967255;28;20035;-67
2021/04/14 14:57:16;;;;;;;4.30;3.90;;;;;;;5.74;65.39;99812.06;4962956;28;20031;-67
2021/04/14 14:59:45;;;;;;;4.13;3.60;;;;;;;5.58;64.23;99810.91;4965732;28;20031;-67
2021/04/14 15:02:22;;;;;;;6.65;3.13;;;;;;;6.10;64.06;99808.44;4962022;28;20149;-66
2021/04/14 15:04:47;;;;;;;3.75;2.88;;;;;;;5.45;63.58;99808.94;4965022;28;20031;-67
2021/04/14 15:07:15;;;;;;;5.43;3.80;;;;;;;5.99;60.72;99803.09;4962132;28;20034;-67
2021/04/14 15:09:41;;;;;;;3.00;2.75;;;;;;;6.28;60.71;99800.13;4967030;28;20027;-67
2021/04/14 15:12:06;;;;;;;4.10;3.17;;;;;;;6.38;60.06;99792.59;4962713;28;20031;-66
2021/04/14 15:14:32;;;;;;;5.13;3.00;;;;;;;6.84;58.51;99792.38;4962658;28;20023;-67
2021/04/14 15:16:57;;;;;;;6.22;3.38;;;;;;;7.00;55.07;99788.28;4963919;28;20618;-67
2021/04/14 15:21:57;;;;;;;4.43;2.55;;;;;;;7.25;57.91;99792.88;5233118;23;20097;-70
2021/04/14 15:24:23;;;;;;;7.60;3.40;;;;;;;7.38;56.30;99781.88;4961291;28;20039;-69
2021/04/14 15:26:52;;;;;;;11.45;4.63;;;;;;;7.07;55.56;99779.81;4966447;28;20043;-70
2021/04/14 15:29:21;;;;;;;3.83;3.00;;;;;;;6.94;54.51;99782.22;4960824;28;20030;-70
2021/04/14 15:31:46;;;;;;;3.67;2.65;;;;;;;6.87;57.05;99777.84;4966120;28;21034;-70
2021/04/14 15:34:11;;;;;;;3.53;3.00;;;;;;;7.35;55.32;99771.53;5004865;23;21570;-71
2021/04/14 15:36:37;;;;;;;7.07;3.15;;;;;;;7.57;54.52;99771.75;4964249;28;20299;-72
2021/04/14 15:39:06;;;;;;;5.13;2.70;;;;;;;7.85;56.20;99763.44;4965075;28;20542;-73
2021/04/14 15:41:32;;;;;;;50.42;22.67;;;;;;;8.06;53.68;99755.00;4964130;28;20107;-72
2021/04/14 15:43:57;;;;;;;5.45;3.53;;;;;;;7.70;53.52;99761.56;4965781;28;20109;-72
2021/04/14 15:46:24;;;;;;;8.48;2.90;;;;;;;7.89;54.11;99760.03;4946938;29;20059;-72
2021/04/14 15:48:51;;;;;;;5.82;3.33;;;;;;;7.46;53.63;99754.47;4946844;29;20395;-72
2021/04/14 15:51:22;;;;;;;8.30;3.33;;;;;;;7.41;57.08;99756.13;4946694;29;20061;-74
2021/04/14 15:53:47;;;;;;;5.70;3.25;;;;;;;7.51;53.72;99754.50;4947245;29;20400;-72
2021/04/14 15:56:13;;;;;;;9.13;3.30;;;;;;;7.60;54.11;99744.28;4946987;28;20031;-72
2021/04/14 15:58:39;;;;;;;4.20;2.90;;;;;;;7.94;53.48;99737.72;4947265;29;20038;-72
2021/04/14 16:01:07;;;;;;;10.02;3.33;;;;;;;8.07;52.29;99738.66;4951199;28;20023;-74
2021/04/14 16:03:33;;;;;;;7.75;3.08;;;;;;;8.06;53.55;99736.06;4955299;28;20027;-73
2021/04/14 16:05:58;;;;;;;6.20;2.67;;;;;;;8.09;49.69;99736.97;4954579;28;20023;-74
2021/04/14 16:08:23;;;;;;;5.85;2.83;;;;;;;8.05;52.23;99734.34;4955179;28;20102;-73
2021/04/14 16:10:49;;;;;;;7.07;3.55;;;;;;;7.90;51.00;99725.63;4955050;28;20106;-76
2021/04/14 16:13:17;;;;;;;3.50;2.63;;;;;;;7.87;51.97;99735.91;4954674;28;20034;-72